Time;durP1;ratioP1;P1;durP2;ratioP2;P2;SDS_P1;SDS_P2;PMS_P1;PMS_P2;Temp;Humidity;BMP_temperature;BMP_pressure;BME280_temperature;BME280_humidity;BME280_pressure;Samples;Min_cycle;Max_cycle;Signal;HPM_P1;HPM_P2
2021/04/22 00:01:58;;;;;;;19.05;5.68;;;4.80;73.70;;;;;;5009412;28;20105;-52
2021/04/22 00:04:23;;;;;;;21.83;5.68;;;4.90;73.80;;;;;;4999326;28;20042;-53
2021/04/22 00:06:50;;;;;;;21.88;5.25;;;4.90;74.10;;;;;;5012156;28;20048;-53
2021/04/22 00:09:16;;;;;;;16.88;4.97;;;4.90;74.20;;;;;;5007081;28;20140;-52
2021/04/22 00:11:42;;;;;;;21.67;5.32;;;4.90;74.40;;;;;;5007839;28;20042;-51
2021/04/22 00:14:08;;;;;;;22.73;5.22;;;4.90;74.20;;;;;;5003018;28;20046;-50
2021/04/22 00:16:34;;;;;;;22.65;5.50;;;5.00;74.20;;;;;;4999849;28;20045;-49
2021/04/22 00:19:00;;;;;;;23.80;5.65;;;5.00;74.00;;;;;;5011481;28;20060;-53
2021/04/22 00:21:26;;;;;;;19.52;5.60;;;5.00;74.00;;;;;;4995513;28;20042;-51
2021/04/22 00:23:51;;;;;;;26.58;6.60;;;5.00;73.80;;;;;;5003938;28;20045;-51
2021/04/22 00:26:17;;;;;;;20.85;4.85;;;5.00;73.50;;;;;;4995656;28;20034;-51
2021/04/22 00:28:43;;;;;;;17.45;4.90;;;5.10;73.30;;;;;;5003809;28;20100;-48
2021/04/22 00:31:09;;;;;;;21.27;6.20;;;5.10;73.30;;;;;;4996811;28;20112;-49
2021/04/22 00:33:35;;;;;;;18.48;5.00;;;5.10;73.00;;;;;;4996929;28;20483;-48
2021/04/22 00:36:01;;;;;;;21.88;5.85;;;5.20;73.40;;;;;;5009100;28;20157;-53
2021/04/22 00:38:27;;;;;;;20.90;5.25;;;5.20;73.60;;;;;;5003487;28;20458;-49
2021/04/22 00:40:53;;;;;;;22.55;5.70;;;5.20;74.00;;;;;;5002534;28;20041;-49
2021/04/22 00:43:20;;;;;;;24.65;5.65;;;5.20;73.90;;;;;;5007524;28;20041;-49
2021/04/22 00:45:49;;;;;;;17.23;4.93;;;5.20;74.00;;;;;;5004758;28;20045;-49
2021/04/22 00:48:18;;;;;;;24.02;5.47;;;5.30;74.10;;;;;;5000439;28;20042;-49
2021/04/22 00:50:45;;;;;;;19.77;5.43;;;5.30;74.10;;;;;;5009884;28;20038;-48
2021/04/22 00:53:11;;;;;;;17.95;5.10;;;5.30;74.30;;;;;;5006156;28;20046;-50
2021/04/22 00:55:37;;;;;;;18.33;4.72;;;5.30;74.40;;;;;;5000387;28;20755;-50
2021/04/22 00:58:04;;;;;;;20.35;5.13;;;5.30;74.80;;;;;;4999152;28;20109;-51
2021/04/22 01:00:38;;;;;;;16.10;5.63;;;5.30;74.60;;;;;;5005103;28;20050;-52
2021/04/22 01:03:05;;;;;;;14.95;4.75;;;5.40;74.60;;;;;;5010112;28;20073;-49
2021/04/22 01:05:34;;;;;;;19.98;5.10;;;5.40;74.20;;;;;;4997318;28;20056;-49
2021/04/22 01:08:00;;;;;;;20.73;5.70;;;5.40;74.10;;;;;;5000263;28;20038;-49
2021/04/22 01:10:26;;;;;;;19.77;5.55;;;5.30;74.30;;;;;;5007833;28;20038;-52
2021/04/22 01:12:53;;;;;;;22.55;5.25;;;5.30;74.40;;;;;;5000822;28;20149;-49
2021/04/22 01:15:21;;;;;;;18.50;5.05;;;5.40;74.50;;;;;;5009528;28;20088;-51
2021/04/22 01:17:47;;;;;;;19.42;5.25;;;5.30;74.50;;;;;;4998560;28;20069;-50
2021/04/22 01:20:26;;;;;;;20.65;4.97;;;5.50;74.60;;;;;;5009467;28;20426;-49
2021/04/22 01:22:53;;;;;;;19.23;4.88;;;5.30;74.70;;;;;;5007554;28;20035;-49
2021/04/22 01:25:25;;;;;;;21.52;5.78;;;5.30;74.50;;;;;;5005640;28;20144;-50
2021/04/22 01:27:51;;;;;;;20.30;5.15;;;5.30;74.80;;;;;;5009698;28;20113;-49
2021/04/22 01:30:22;;;;;;;17.58;4.88;;;5.30;74.80;;;;;;5010794;28;20099;-49
2021/04/22 01:32:49;;;;;;;19.02;4.55;;;5.40;74.80;;;;;;5004938;28;20045;-48
2021/04/22 01:35:19;;;;;;;14.50;4.43;;;5.30;74.70;;;;;;5008300;28;20058;-51
2021/04/22 01:37:44;;;;;;;15.18;4.30;;;5.30;74.60;;;;;;5012047;28;20042;-49
2021/04/22 01:40:11;;;;;;;16.52;4.53;;;5.30;74.40;;;;;;5007614;28;20491;-49
2021/04/22 01:42:37;;;;;;;16.48;4.57;;;5.30;74.60;;;;;;4993997;28;20093;-48
2021/04/22 01:45:04;;;;;;;22.83;4.50;;;5.30;74.80;;;;;;4995661;28;20157;-49
2021/04/22 01:47:30;;;;;;;16.38;3.75;;;5.30;74.60;;;;;;5006382;28;20037;-51
2021/04/22 01:49:56;;;;;;;17.55;4.00;;;5.30;74.30;;;;;;5008643;28;20501;-51
2021/04/22 01:52:24;;;;;;;19.73;4.68;;;5.30;74.30;;;;;;4997207;28;20054;-51
2021/04/22 01:54:50;;;;;;;19.23;4.32;;;5.30;74.20;;;;;;5011664;28;20532;-50
2021/04/22 01:57:16;;;;;;;16.98;4.10;;;5.30;74.00;;;;;;4993740;28;20039;-50
2021/04/22 01:59:41;;;;;;;15.30;3.72;;;5.30;73.80;;;;;;4993324;28;20144;-50
2021/04/22 02:02:07;;;;;;;16.23;4.57;;;5.40;73.90;;;;;;5000452;28;20041;-51
2021/04/22 02:04:33;;;;;;;18.20;3.65;;;5.40;73.80;;;;;;5002735;28;20487;-50
2021/04/22 02:06:58;;;;;;;16.35;3.45;;;5.50;73.50;;;;;;4995345;28;20132;-49
2021/04/22 02:09:24;;;;;;;15.77;3.50;;;5.40;73.90;;;;;;5007193;28;20474;-50
2021/04/22 02:11:50;;;;;;;19.30;3.97;;;5.50;73.40;;;;;;4993257;28;20246;-49
2021/04/22 02:14:15;;;;;;;14.18;3.83;;;5.50;73.20;;;;;;4997555;28;20723;-52
2021/04/22 02:16:41;;;;;;;16.90;3.58;;;5.50;73.40;;;;;;5009650;28;20033;-50
2021/04/22 02:19:07;;;;;;;13.40;3.55;;;5.60;73.40;;;;;;5005290;28;20042;-52
2021/04/22 02:21:33;;;;;;;15.55;3.65;;;5.60;73.30;;;;;;4997005;28;20051;-52
2021/04/22 02:23:58;;;;;;;13.63;3.60;;;5.60;73.20;;;;;;4993887;28;20120;-53
2021/04/22 02:26:25;;;;;;;21.17;3.78;;;5.60;73.30;;;;;;4999376;28;20058;-53
2021/04/22 02:28:50;;;;;;;16.83;3.58;;;5.60;73.70;;;;;;5009222;28;20088;-51
2021/04/22 02:31:16;;;;;;;16.67;3.42;;;5.60;73.20;;;;;;5007660;28;20042;-53
2021/04/22 02:33:42;;;;;;;14.90;3.75;;;5.60;72.80;;;;;;5007611;28;20394;-51
2021/04/22 02:36:08;;;;;;;13.35;3.40;;;5.70;72.40;;;;;;5009058;28;20042;-54
2021/04/22 02:38:34;;;;;;;20.63;3.70;;;5.70;72.40;;;;;;5004479;28;20500;-54
2021/04/22 02:40:59;;;;;;;17.42;3.47;;;5.70;72.10;;;;;;5003458;28;20049;-51
2021/04/22 02:43:25;;;;;;;15.77;3.83;;;5.70;71.90;;;;;;5003880;28;20485;-53
2021/04/22 02:45:58;;;;;;;19.45;3.70;;;5.80;71.70;;;;;;4999804;28;20034;-50
2021/04/22 02:48:25;;;;;;;22.30;3.80;;;5.80;71.50;;;;;;5009835;28;20084;-53
2021/04/22 02:50:54;;;;;;;17.38;3.30;;;5.80;71.50;;;;;;5000908;28;20046;-52
2021/04/22 02:53:21;;;;;;;17.23;3.50;;;5.90;71.90;;;;;;4995505;28;20053;-49
2021/04/22 02:55:48;;;;;;;15.57;3.28;;;5.90;71.70;;;;;;5003798;28;20053;-50
2021/04/22 02:58:15;;;;;;;18.70;3.80;;;5.90;71.80;;;;;;5008183;28;20506;-48
2021/04/22 03:00:43;;;;;;;16.40;3.20;;;5.90;71.90;;;;;;5000638;28;20052;-49
2021/04/22 03:03:09;;;;;;;19.08;3.40;;;5.90;72.10;;;;;;5000236;28;20050;-50
2021/04/22 03:05:36;;;;;;;15.48;3.45;;;5.90;71.90;;;;;;5005738;28;20568;-51
2021/04/22 03:08:04;;;;;;;12.40;3.60;;;5.90;71.70;;;;;;5008331;28;20080;-49
2021/04/22 03:10:31;;;;;;;16.35;3.97;;;5.90;72.00;;;;;;5003908;28;20042;-49
2021/04/22 03:12:56;;;;;;;17.75;4.15;;;5.90;72.00;;;;;;4989679;28;20034;-52
2021/04/22 03:15:23;;;;;;;15.52;4.05;;;5.90;72.10;;;;;;4996060;28;20041;-48
2021/04/22 03:17:50;;;;;;;22.02;5.00;;;5.80;71.90;;;;;;5001857;28;20049;-49
2021/04/22 03:20:19;;;;;;;19.00;4.60;;;5.80;71.80;;;;;;5002774;28;20039;-50
2021/04/22 03:22:45;;;;;;;12.68;3.38;;;5.70;71.60;;;;;;5000100;28;20483;-49
2021/04/22 03:25:13;;;;;;;12.88;2.53;;;5.80;71.70;;;;;;5007596;28;20046;-50
2021/04/22 03:27:39;;;;;;;15.48;3.80;;;5.80;71.60;;;;;;5010449;28;20042;-52
2021/04/22 03:30:07;;;;;;;12.43;3.20;;;5.80;71.70;;;;;;5004976;28;20049;-50
2021/04/22 03:32:33;;;;;;;17.90;3.30;;;5.80;71.80;;;;;;5005821;28;20516;-49
2021/04/22 03:34:59;;;;;;;15.10;3.05;;;5.80;72.00;;;;;;5005533;28;20053;-53
2021/04/22 03:37:25;;;;;;;19.35;3.58;;;5.80;72.00;;;;;;5009935;28;20177;-49
2021/04/22 03:39:51;;;;;;;16.98;3.30;;;5.80;72.20;;;;;;5002838;28;20046;-50
2021/04/22 03:42:17;;;;;;;17.77;3.30;;;5.80;72.20;;;;;;5007124;28;20046;-50
2021/04/22 03:44:47;;;;;;;19.38;3.70;;;5.80;72.40;;;;;;5005625;28;20034;-50
2021/04/22 03:47:13;;;;;;;14.65;3.00;;;5.80;72.50;;;;;;5008778;28;20095;-53
2021/04/22 03:49:39;;;;;;;16.45;3.92;;;5.80;72.50;;;;;;5007274;28;20413;-49
2021/04/22 03:52:06;;;;;;;14.05;2.80;;;5.80;72.60;;;;;;5014407;28;20549;-49
2021/04/22 03:54:34;;;;;;;13.50;3.75;;;5.70;72.60;;;;;;5002994;28;20038;-50
2021/04/22 03:57:02;;;;;;;20.33;3.25;;;5.70;72.90;;;;;;5002890;28;20560;-50
2021/04/22 03:59:27;;;;;;;15.20;2.85;;;5.70;73.10;;;;;;4999747;28;20515;-49
2021/04/22 04:01:53;;;;;;;12.88;2.97;;;5.60;73.10;;;;;;5000829;28;20045;-50
2021/04/22 04:04:19;;;;;;;19.67;3.83;;;5.70;73.30;;;;;;5005439;28;20166;-49
2021/04/22 04:06:45;;;;;;;18.60;3.58;;;5.70;73.40;;;;;;4998306;28;20074;-50
2021/04/22 04:09:11;;;;;;;20.05;3.05;;;5.60;73.30;;;;;;4994791;28;21709;-51
2021/04/22 04:11:37;;;;;;;12.40;3.15;;;5.60;73.20;;;;;;5007790;28;20054;-49
2021/04/22 04:14:03;;;;;;;14.40;3.05;;;5.60;73.20;;;;;;5004768;28;20038;-52
2021/04/22 04:16:29;;;;;;;10.85;2.70;;;5.50;73.20;;;;;;5001976;28;20038;-50
2021/04/22 04:18:55;;;;;;;12.95;3.30;;;5.50;73.20;;;;;;5008376;28;20176;-51
2021/04/22 04:21:21;;;;;;;12.63;3.35;;;5.60;73.10;;;;;;4994118;28;20046;-49
2021/04/22 04:23:47;;;;;;;14.85;3.47;;;5.50;73.10;;;;;;5004652;28;20048;-50
2021/04/22 04:26:12;;;;;;;16.00;3.78;;;5.50;72.90;;;;;;5000784;28;20049;-49
2021/04/22 04:28:39;;;;;;;15.00;2.90;;;5.50;73.00;;;;;;5005045;28;20034;-50
2021/04/22 04:31:05;;;;;;;18.23;3.13;;;5.40;73.00;;;;;;4999695;28;20033;-49
2021/04/22 04:33:30;;;;;;;16.63;3.13;;;5.40;73.00;;;;;;5002017;28;20042;-49
2021/04/22 04:35:57;;;;;;;15.50;3.58;;;5.50;73.00;;;;;;4998119;28;20046;-48
2021/04/22 04:38:23;;;;;;;12.38;3.33;;;5.50;73.10;;;;;;5000492;28;20042;-49
2021/04/22 04:40:48;;;;;;;12.48;3.17;;;5.50;72.90;;;;;;5000248;28;20037;-51
2021/04/22 04:43:14;;;;;;;13.77;3.17;;;5.50;72.70;;;;;;4995905;28;20049;-50
2021/04/22 04:45:40;;;;;;;13.43;3.13;;;5.60;72.70;;;;;;4999417;28;20472;-51
2021/04/22 04:48:06;;;;;;;16.13;2.85;;;5.60;72.80;;;;;;5002809;28;20117;-49
2021/04/22 04:50:32;;;;;;;12.75;3.22;;;5.60;72.60;;;;;;5004728;28;20037;-49
2021/04/22 04:52:58;;;;;;;11.60;3.00;;;5.60;72.50;;;;;;4998685;28;20145;-49
2021/04/22 04:55:24;;;;;;;12.15;2.65;;;5.60;72.50;;;;;;5011992;28;20042;-50
2021/04/22 04:57:50;;;;;;;13.82;3.15;;;5.60;72.20;;;;;;4971605;28;20580;-52
2021/04/22 05:00:17;;;;;;;16.50;2.97;;;5.70;72.10;;;;;;4999276;28;20035;-52
2021/04/22 05:02:43;;;;;;;14.43;2.88;;;5.70;72.00;;;;;;5006193;28;20418;-49
2021/04/22 05:05:10;;;;;;;15.35;3.10;;;5.80;71.70;;;;;;5005041;28;20128;-50
2021/04/22 05:07:39;;;;;;;13.65;3.05;;;5.80;71.80;;;;;;4999026;28;20037;-53
2021/04/22 05:10:07;;;;;;;16.77;3.45;;;5.80;71.40;;;;;;4992916;28;20050;-50
2021/04/22 05:12:33;;;;;;;22.58;3.25;;;5.80;71.40;;;;;;4998085;28;20080;-49
2021/04/22 05:14:59;;;;;;;15.95;3.47;;;5.90;71.10;;;;;;4996420;28;20061;-48
2021/04/22 05:17:25;;;;;;;15.32;3.28;;;5.90;71.10;;;;;;5011635;28;20506;-49
2021/04/22 05:19:51;;;;;;;13.00;3.63;;;5.90;71.40;;;;;;5002738;28;20093;-49
2021/04/22 05:22:16;;;;;;;16.55;3.17;;;5.90;71.40;;;;;;4997635;28;20033;-50
2021/04/22 05:24:42;;;;;;;19.83;4.32;;;6.00;71.30;;;;;;4991842;28;20046;-50
2021/04/22 05:27:08;;;;;;;12.13;2.90;;;6.00;71.30;;;;;;5003543;28;20046;-49
2021/04/22 05:29:35;;;;;;;12.43;3.33;;;6.10;71.50;;;;;;5007258;28;20410;-49
2021/04/22 05:32:01;;;;;;;12.57;2.80;;;6.20;71.40;;;;;;5004290;28;20490;-50
2021/04/22 05:34:28;;;;;;;11.98;3.03;;;6.30;71.40;;;;;;4996442;28;20474;-48
2021/04/22 05:36:54;;;;;;;21.80;3.53;;;6.40;71.30;;;;;;5002571;28;20042;-51
2021/04/22 05:39:22;;;;;;;16.50;3.10;;;6.40;70.90;;;;;;4997679;28;20100;-48
2021/04/22 05:41:49;;;;;;;16.30;3.30;;;6.50;70.80;;;;;;4995766;28;20432;-49
2021/04/22 05:44:14;;;;;;;11.70;3.67;;;6.50;70.70;;;;;;4996279;28;20125;-50
2021/04/22 05:46:41;;;;;;;16.17;3.30;;;6.50;70.70;;;;;;4995633;28;20100;-48
2021/04/22 05:49:06;;;;;;;12.02;3.35;;;6.50;70.40;;;;;;5001718;28;20132;-48
2021/04/22 05:51:32;;;;;;;19.95;3.70;;;6.50;70.00;;;;;;5000907;28;20555;-48
2021/04/22 05:53:58;;;;;;;17.73;3.20;;;6.50;70.30;;;;;;5011990;28;20038;-49
2021/04/22 05:56:25;;;;;;;18.77;4.05;;;6.50;70.00;;;;;;5010214;28;20434;-49
2021/04/22 05:58:51;;;;;;;13.52;2.90;;;6.50;70.30;;;;;;4992353;28;20038;-52
2021/04/22 06:01:16;;;;;;;14.60;2.92;;;6.50;69.50;;;;;;5002091;28;20049;-49
2021/04/22 06:03:42;;;;;;;13.70;3.03;;;6.60;69.90;;;;;;4995000;28;20025;-49
2021/04/22 06:06:07;;;;;;;18.20;3.30;;;6.70;69.20;;;;;;4998108;28;20396;-53
2021/04/22 06:08:33;;;;;;;17.05;3.30;;;6.70;69.10;;;;;;5005194;28;20073;-50
2021/04/22 06:10:59;;;;;;;20.98;2.97;;;6.70;68.90;;;;;;5007811;28;20062;-52
2021/04/22 06:13:25;;;;;;;14.68;3.50;;;6.80;68.20;;;;;;4998011;28;20525;-50
2021/04/22 06:15:51;;;;;;;16.70;3.13;;;6.90;68.00;;;;;;5003017;28;20122;-53
2021/04/22 06:18:16;;;;;;;14.57;3.83;;;6.90;68.10;;;;;;5008213;28;20053;-51
2021/04/22 06:20:42;;;;;;;17.10;3.30;;;7.00;66.10;;;;;;5001332;28;20042;-50
2021/04/22 06:23:08;;;;;;;14.43;2.83;;;7.00;66.30;;;;;;5025207;28;20096;-52
2021/04/22 06:25:34;;;;;;;12.20;2.75;;;7.00;66.60;;;;;;5009339;28;20475;-50
2021/04/22 06:28:00;;;;;;;20.05;2.88;;;7.00;66.00;;;;;;5010055;28;20046;-53
2021/04/22 06:30:27;;;;;;;17.75;3.85;;;7.10;65.60;;;;;;5005293;28;20088;-53
2021/04/22 06:32:53;;;;;;;22.55;3.65;;;7.10;66.10;;;;;;5006576;28;20080;-53
2021/04/22 06:35:20;;;;;;;16.80;3.13;;;7.10;65.60;;;;;;5009087;28;20042;-53
2021/04/22 06:37:49;;;;;;;13.00;2.80;;;7.10;64.20;;;;;;5005158;28;20081;-52
2021/04/22 06:40:18;;;;;;;13.73;2.92;;;7.20;64.30;;;;;;5000154;28;20400;-53
2021/04/22 06:42:44;;;;;;;15.57;3.35;;;7.20;64.50;;;;;;5007943;28;20038;-53
2021/04/22 06:45:13;;;;;;;13.05;3.13;;;7.30;64.40;;;;;;5008263;28;20073;-52
2021/04/22 06:47:39;;;;;;;15.50;3.38;;;7.40;63.90;;;;;;5022378;28;20395;-53
2021/04/22 06:50:11;;;;;;;21.95;4.35;;;7.40;64.10;;;;;;5006134;28;20088;-52
2021/04/22 06:52:39;;;;;;;10.80;2.90;;;7.40;64.20;;;;;;5008733;28;20033;-52
2021/04/22 06:55:07;;;;;;;16.83;3.15;;;7.40;64.00;;;;;;5008085;28;20049;-49
2021/04/22 06:57:34;;;;;;;16.48;3.70;;;7.50;61.80;;;;;;5007759;28;20445;-52
2021/04/22 07:00:00;;;;;;;18.40;4.38;;;7.50;61.40;;;;;;5007381;28;20079;-53
2021/04/22 07:02:27;;;;;;;14.32;3.97;;;7.50;62.30;;;;;;5007721;28;20041;-52
2021/04/22 07:04:53;;;;;;;12.45;3.30;;;7.50;62.50;;;;;;5000203;28;20042;-52
2021/04/22 07:07:19;;;;;;;19.42;3.47;;;7.60;62.20;;;;;;4997361;28;20387;-52
2021/04/22 07:10:06;;;;;;;15.23;3.42;;;7.60;61.20;;;;;;4996593;28;20066;-53
2021/04/22 07:12:32;;;;;;;18.30;3.22;;;7.70;61.80;;;;;;5008582;28;20121;-57
2021/04/22 07:14:58;;;;;;;12.05;2.65;;;7.80;61.60;;;;;;5011662;28;20072;-53
2021/04/22 07:17:25;;;;;;;22.50;4.10;;;7.80;62.30;;;;;;5012462;28;20072;-53
2021/04/22 07:19:51;;;;;;;12.68;3.35;;;7.90;62.00;;;;;;5010164;28;20042;-56
2021/04/22 07:22:24;;;;;;;18.23;2.85;;;8.00;61.20;;;;;;5010319;28;20486;-54
2021/04/22 07:24:52;;;;;;;12.27;3.60;;;8.00;61.50;;;;;;5008554;28;20039;-54
2021/04/22 07:27:39;;;;;;;14.55;3.22;;;8.00;62.40;;;;;;5009753;28;20677;-51
2021/04/22 07:30:06;;;;;;;14.82;3.55;;;8.10;62.40;;;;;;5026104;28;20046;-56
2021/04/22 07:32:33;;;;;;;17.02;3.42;;;8.20;61.80;;;;;;5009508;28;20494;-54
2021/04/22 07:34:59;;;;;;;18.65;3.38;;;8.20;60.80;;;;;;5009518;28;20116;-54
2021/04/22 07:37:25;;;;;;;13.18;3.40;;;8.30;59.60;;;;;;5002220;28;20050;-55
2021/04/22 07:39:51;;;;;;;17.10;3.60;;;8.30;60.30;;;;;;5009447;28;20092;-57
2021/04/22 07:42:17;;;;;;;14.88;3.65;;;8.20;59.90;;;;;;5012272;28;20038;-53
2021/04/22 07:44:47;;;;;;;11.27;3.17;;;8.30;59.00;;;;;;5005059;28;20064;-57
2021/04/22 07:47:17;;;;;;;13.98;3.47;;;8.20;59.20;;;;;;5010949;28;20049;-54
2021/04/22 07:49:44;;;;;;;14.13;3.60;;;8.20;58.50;;;;;;5012743;28;20038;-53
2021/04/22 07:52:10;;;;;;;7.97;2.78;;;8.30;58.60;;;;;;5008278;28;20057;-56
2021/04/22 07:54:36;;;;;;;16.92;3.00;;;8.40;58.70;;;;;;5005665;28;20122;-56
2021/04/22 07:57:03;;;;;;;16.38;3.25;;;8.40;56.80;;;;;;5004401;28;20042;-55
2021/04/22 07:59:29;;;;;;;14.65;3.10;;;8.50;56.20;;;;;;5010700;28;20053;-57
2021/04/22 08:01:55;;;;;;;10.18;2.92;;;8.50;56.50;;;;;;5013812;28;20038;-56
2021/04/22 08:04:20;;;;;;;11.85;3.03;;;8.50;56.40;;;;;;4994135;28;20057;-57
2021/04/22 08:06:46;;;;;;;8.80;2.97;;;8.70;55.50;;;;;;5004091;28;21093;-55
2021/04/22 08:09:12;;;;;;;14.30;3.03;;;8.70;56.00;;;;;;4997730;28;20079;-57
2021/04/22 08:11:37;;;;;;;14.95;3.20;;;8.80;56.60;;;;;;5007788;28;20046;-53
2021/04/22 08:14:04;;;;;;;9.57;3.00;;;8.70;56.30;;;;;;5010532;28;20046;-54
2021/04/22 08:16:29;;;;;;;22.17;2.88;;;8.80;56.80;;;;;;5009479;28;20406;-49
2021/04/22 08:18:56;;;;;;;14.57;3.00;;;8.90;55.80;;;;;;5011501;28;20054;-53
2021/04/22 08:21:23;;;;;;;10.80;2.75;;;8.80;56.40;;;;;;5011126;28;20107;-53
2021/04/22 08:23:49;;;;;;;17.70;4.32;;;8.80;57.00;;;;;;5008246;28;20481;-54
2021/04/22 08:26:18;;;;;;;10.55;2.85;;;8.90;56.80;;;;;;5009231;28;20049;-53
2021/04/22 08:28:45;;;;;;;12.65;2.97;;;9.00;56.40;;;;;;5005776;28;20034;-50
2021/04/22 08:31:25;;;;;;;12.57;2.80;;;9.00;55.70;;;;;;5001293;28;20173;-52
2021/04/22 08:33:54;;;;;;;12.35;2.92;;;9.00;56.10;;;;;;4996623;28;20048;-53
2021/04/22 08:36:22;;;;;;;9.13;2.63;;;9.00;56.80;;;;;;4991861;28;20792;-53
2021/04/22 08:38:49;;;;;;;9.75;2.20;;;9.00;55.90;;;;;;5004298;28;20100;-54
2021/04/22 08:41:16;;;;;;;11.55;2.60;;;8.90;56.00;;;;;;4997509;28;20379;-51
2021/04/22 08:43:43;;;;;;;9.75;2.80;;;9.00;55.70;;;;;;5003516;28;20399;-54
2021/04/22 08:46:09;;;;;;;10.27;2.47;;;9.00;56.60;;;;;;4997653;28;20134;-50
2021/04/22 08:48:36;;;;;;;10.80;3.00;;;9.10;57.10;;;;;;4998129;28;20046;-51
2021/04/22 08:51:04;;;;;;;14.65;3.00;;;9.10;56.20;;;;;;5005865;28;20046;-54
2021/04/22 08:53:33;;;;;;;11.27;2.90;;;9.10;56.90;;;;;;5009808;28;20084;-54
2021/04/22 08:55:59;;;;;;;9.48;2.40;;;9.10;57.50;;;;;;5005815;28;20077;-50
2021/04/22 08:58:26;;;;;;;14.70;3.40;;;9.10;57.40;;;;;;5007406;28;20057;-53
2021/04/22 09:00:56;;;;;;;10.40;3.22;;;9.10;58.60;;;;;;5010705;28;20100;-51
2021/04/22 09:03:22;;;;;;;8.80;2.80;;;9.00;58.10;;;;;;4981607;28;20062;-54
2021/04/22 09:05:49;;;;;;;9.75;2.85;;;8.90;56.60;;;;;;5003981;28;20042;-54
2021/04/22 09:08:31;;;;;;;11.35;2.45;;;9.00;57.70;;;;;;4993584;28;20388;-49
2021/04/22 09:10:57;;;;;;;14.73;3.33;;;9.20;58.00;;;;;;4999367;28;20117;-53
2021/04/22 09:13:24;;;;;;;11.77;2.83;;;9.40;57.80;;;;;;4999155;28;20078;-51
2021/04/22 09:16:04;;;;;;;11.43;3.15;;;9.60;57.70;;;;;;4987432;28;20034;-52
2021/04/22 09:18:40;;;;;;;11.20;3.03;;;9.60;56.40;;;;;;5012390;28;20049;-52
2021/04/22 09:21:15;;;;;;;7.38;2.42;;;9.60;56.50;;;;;;4993381;28;20046;-53
2021/04/22 09:23:56;;;;;;;8.57;2.70;;;9.70;57.30;;;;;;5004449;28;20138;-51
2021/04/22 09:26:22;;;;;;;11.80;2.75;;;9.80;56.90;;;;;;4993944;28;20034;-54
2021/04/22 09:28:48;;;;;;;9.68;2.88;;;9.90;54.70;;;;;;5007009;28;20514;-52
2021/04/22 09:31:26;;;;;;;9.75;2.88;;;9.80;55.70;;;;;;5010908;28;20056;-55
2021/04/22 09:34:05;;;;;;;9.98;3.30;;;9.70;56.40;;;;;;5005458;28;20183;-54
2021/04/22 09:36:50;;;;;;;8.45;3.22;;;9.70;56.90;;;;;;5002390;28;20089;-54
2021/04/22 09:39:24;;;;;;;10.48;2.78;;;9.60;56.00;;;;;;5005797;28;20614;-55
2021/04/22 09:41:54;;;;;;;8.52;2.83;;;9.60;57.60;;;;;;4997397;28;20058;-52
2021/04/22 09:44:20;;;;;;;10.85;3.05;;;9.60;57.40;;;;;;5000536;28;20092;-54
2021/04/22 09:46:47;;;;;;;11.10;3.28;;;9.50;57.40;;;;;;5007112;28;20045;-53
2021/04/22 09:49:20;;;;;;;13.18;4.65;;;9.40;58.30;;;;;;5004699;28;20042;-53
2021/04/22 09:51:48;;;;;;;11.63;3.08;;;9.40;59.10;;;;;;5009445;28;20064;-52
2021/04/22 09:54:23;;;;;;;11.15;3.75;;;9.40;59.70;;;;;;4991192;28;20477;-53
2021/04/22 09:56:54;;;;;;;14.35;3.47;;;9.40;60.40;;;;;;4990989;28;20038;-53
2021/04/22 09:59:27;;;;;;;12.13;3.00;;;9.50;60.10;;;;;;5008395;28;20501;-53
2021/04/22 10:02:06;;;;;;;12.20;3.17;;;9.60;59.90;;;;;;5003224;28;20048;-53
2021/04/22 10:04:37;;;;;;;12.52;3.20;;;9.50;61.80;;;;;;5007632;28;20037;-53
2021/04/22 10:07:04;;;;;;;8.43;2.55;;;9.40;61.40;;;;;;4991925;28;20049;-53
2021/04/22 10:09:35;;;;;;;9.75;3.10;;;9.40;61.50;;;;;;4995254;28;20088;-53
2021/04/22 10:12:02;;;;;;;6.50;2.80;;;9.40;60.70;;;;;;4992792;28;20038;-55
2021/04/22 10:14:34;;;;;;;8.45;3.10;;;9.50;61.80;;;;;;5007039;28;20434;-51
2021/04/22 10:17:12;;;;;;;11.98;3.22;;;9.60;62.00;;;;;;5000621;28;20073;-54
2021/04/22 10:19:38;;;;;;;7.57;2.63;;;9.90;61.60;;;;;;5007695;28;20046;-52
2021/04/22 10:22:04;;;;;;;7.93;3.03;;;10.20;60.00;;;;;;5003243;28;20104;-53
2021/04/22 10:24:30;;;;;;;7.15;2.47;;;10.20;59.00;;;;;;4993527;28;20053;-53
2021/04/22 10:27:04;;;;;;;9.55;3.08;;;10.30;57.90;;;;;;4990494;28;20614;-50
2021/04/22 10:29:31;;;;;;;8.70;2.72;;;10.30;57.60;;;;;;5005288;28;20046;-55
2021/04/22 10:31:58;;;;;;;10.20;2.45;;;10.20;56.70;;;;;;5002354;28;20049;-53
2021/04/22 10:34:30;;;;;;;7.70;2.50;;;10.20;56.00;;;;;;4992145;28;20430;-56
2021/04/22 10:37:02;;;;;;;10.38;3.00;;;10.10;56.80;;;;;;4987437;28;20042;-52
2021/04/22 10:39:28;;;;;;;11.13;3.22;;;10.10;56.90;;;;;;5012159;28;20506;-52
2021/04/22 10:41:55;;;;;;;9.02;3.03;;;10.10;56.80;;;;;;5007479;28;20042;-51
2021/04/22 10:44:23;;;;;;;11.20;3.03;;;10.10;56.80;;;;;;4989977;28;20050;-50
2021/04/22 10:46:50;;;;;;;12.60;3.25;;;10.10;57.10;;;;;;5004722;28;20050;-50
2021/04/22 10:49:16;;;;;;;7.53;2.75;;;10.10;57.40;;;;;;4996889;28;20477;-53
2021/04/22 10:51:43;;;;;;;10.80;3.03;;;10.10;56.60;;;;;;5010945;28;20046;-52
2021/04/22 10:54:09;;;;;;;12.65;2.90;;;10.20;56.20;;;;;;5009925;28;20133;-50
2021/04/22 10:56:35;;;;;;;13.85;2.92;;;10.20;55.40;;;;;;4993328;28;20092;-53
2021/04/22 10:59:01;;;;;;;13.32;2.55;;;10.20;56.50;;;;;;4991728;28;20042;-51
2021/04/22 11:01:38;;;;;;;11.50;3.08;;;10.10;56.60;;;;;;4991836;28;20093;-50
2021/04/22 11:04:10;;;;;;;13.95;3.20;;;10.20;57.00;;;;;;5021587;28;20471;-53
2021/04/22 11:06:47;;;;;;;11.30;3.50;;;10.20;56.20;;;;;;5007406;28;20414;-49
2021/04/22 11:09:20;;;;;;;12.45;2.78;;;10.10;56.50;;;;;;5003761;28;20049;-53
2021/04/22 11:12:00;;;;;;;15.32;3.25;;;10.10;57.20;;;;;;5008312;28;20066;-53
2021/04/22 11:14:38;;;;;;;6.50;2.70;;;10.30;57.80;;;;;;5010271;28;20038;-52
2021/04/22 11:17:09;;;;;;;13.60;2.78;;;10.40;58.10;;;;;;5010498;28;20038;-52
2021/04/22 11:19:44;;;;;;;13.68;3.10;;;10.40;57.70;;;;;;5008738;28;20057;-52
2021/04/22 11:22:29;;;;;;;7.72;2.75;;;10.50;55.70;;;;;;5007916;28;20034;-52
2021/04/22 11:25:02;;;;;;;9.82;2.40;;;10.50;54.70;;;;;;5008480;28;20034;-51
2021/04/22 11:27:31;;;;;;;11.95;2.70;;;10.50;55.30;;;;;;5004309;28;20510;-53
2021/04/22 11:30:05;;;;;;;7.97;2.97;;;10.30;54.20;;;;;;5010354;28;20068;-53
2021/04/22 11:32:40;;;;;;;7.20;2.28;;;10.30;55.40;;;;;;5009407;28;20457;-52
2021/04/22 11:35:06;;;;;;;5.03;1.98;;;10.40;55.80;;;;;;4998469;28;20045;-53
2021/04/22 11:37:37;;;;;;;7.22;2.20;;;10.40;55.80;;;;;;5008925;28;20097;-53
2021/04/22 11:40:11;;;;;;;3.67;1.88;;;10.60;56.20;;;;;;5007152;28;20064;-52
2021/04/22 11:42:39;;;;;;;11.07;2.40;;;10.80;55.10;;;;;;5007281;28;20065;-53
2021/04/22 11:45:08;;;;;;;5.93;2.03;;;10.90;55.00;;;;;;4992610;28;20038;-53
2021/04/22 11:47:35;;;;;;;7.57;2.72;;;10.90;54.30;;;;;;5009768;28;20426;-52
2021/04/22 11:50:12;;;;;;;7.80;2.20;;;10.90;53.30;;;;;;5011267;28;20109;-52
2021/04/22 11:52:48;;;;;;;16.50;5.85;;;11.00;52.70;;;;;;5012233;28;20030;-52
2021/04/22 11:55:21;;;;;;;10.63;4.78;;;10.90;51.20;;;;;;5010832;28;20077;-52
2021/04/22 11:57:56;;;;;;;7.78;3.38;;;10.80;51.90;;;;;;5011974;28;20045;-53
2021/04/22 12:00:25;;;;;;;9.20;2.65;;;10.70;52.50;;;;;;5015478;28;20046;-53
2021/04/22 12:02:53;;;;;;;11.00;2.70;;;10.80;52.90;;;;;;5013854;28;20071;-53
2021/04/22 12:05:20;;;;;;;8.82;2.38;;;10.90;52.70;;;;;;5014712;28;20041;-54
2021/04/22 12:08:08;;;;;;;10.55;2.63;;;11.20;53.00;;;;;;5011925;28;20042;-55
2021/04/22 12:10:44;;;;;;;6.75;3.00;;;11.50;52.70;;;;;;5011546;28;20070;-52
2021/04/22 12:13:11;;;;;;;10.32;2.60;;;11.60;52.10;;;;;;4991495;28;20526;-55
2021/04/22 12:15:43;;;;;;;10.23;2.95;;;11.70;51.60;;;;;;5012560;28;20050;-54
2021/04/22 12:18:11;;;;;;;12.00;3.20;;;11.60;52.20;;;;;;4991079;28;20053;-53
2021/04/22 12:20:38;;;;;;;10.32;2.92;;;11.40;52.20;;;;;;4986144;28;20073;-53
2021/04/22 12:23:14;;;;;;;7.85;3.30;;;11.50;52.80;;;;;;5009321;28;20057;-53
2021/04/22 12:25:43;;;;;;;11.02;3.20;;;11.70;52.60;;;;;;4969019;28;20046;-52
2021/04/22 12:28:11;;;;;;;10.73;2.60;;;11.80;53.00;;;;;;5008330;28;20057;-53
2021/04/22 12:30:49;;;;;;;9.80;2.45;;;11.90;51.70;;;;;;5014229;28;20527;-55
2021/04/22 12:33:16;;;;;;;20.45;8.80;;;12.00;52.80;;;;;;4992142;28;20068;-54
2021/04/22 12:35:52;;;;;;;11.00;2.80;;;12.10;52.00;;;;;;5002089;28;20335;-56
2021/04/22 12:38:28;;;;;;;9.80;2.80;;;11.90;49.50;;;;;;4996842;28;20448;-54
2021/04/22 12:40:59;;;;;;;10.25;2.67;;;11.90;48.40;;;;;;5005016;28;20042;-54
2021/04/22 12:43:29;;;;;;;12.93;3.20;;;11.60;48.40;;;;;;5012962;28;20043;-56
2021/04/22 12:45:56;;;;;;;8.60;2.55;;;11.30;49.60;;;;;;4998002;28;20125;-56
2021/04/22 12:48:22;;;;;;;10.50;2.92;;;11.40;51.80;;;;;;4999980;28;20046;-53
2021/04/22 12:50:52;;;;;;;8.05;2.53;;;11.60;52.30;;;;;;5014175;28;20045;-53